createdAt,value
2023-04-20T00:00:38.927Z,100029.97
2023-04-20T00:03:42.824Z,100022.56
2023-04-20T00:06:45.602Z,100026.75
2023-04-20T00:09:47.950Z,100011.66
2023-04-20T00:12:53.449Z,100025.72
2023-04-20T00:15:55.976Z,100024.47
2023-04-20T00:19:00.340Z,100008.66
2023-04-20T00:22:03.712Z,100015.16
2023-04-20T00:25:06.740Z,100014.56
2023-04-20T00:28:09.057Z,100017.50
2023-04-20T00:31:11.468Z,100005.09
2023-04-20T00:34:13.785Z,100028.16
2023-04-20T00:37:19.792Z,100014.00
2023-04-20T00:40:22.142Z,100014.00
2023-04-20T00:43:24.875Z,99997.78
2023-04-20T00:46:28.437Z,99990.13
2023-04-20T00:49:31.376Z,100015.50
2023-04-20T00:52:34.017Z,100012.50
2023-04-20T00:55:37.571Z,99987.66
2023-04-20T00:58:40.260Z,100021.41
2023-04-20T01:01:42.910Z,100004.81
2023-04-20T01:04:47.250Z,100003.91
2023-04-20T01:07:50.141Z,100000.88
2023-04-20T01:10:52.553Z,100006.09
2023-04-20T01:13:54.910Z,99976.22
2023-04-20T01:16:58.700Z,99999.72
2023-04-20T01:20:01.121Z,99977.91
2023-04-20T01:23:03.572Z,99992.41
2023-04-20T01:26:07.662Z,99997.28
2023-04-20T01:29:09.989Z,100001.69
2023-04-20T01:32:13.086Z,99975.50
2023-04-20T01:35:16.244Z,100008.66
2023-04-20T01:38:21.849Z,100005.06
2023-04-20T01:41:24.709Z,99987.31
2023-04-20T01:44:27.098Z,99994.84
2023-04-20T01:47:30.890Z,99988.13
2023-04-20T01:50:33.591Z,99999.13
2023-04-20T01:53:36.087Z,99976.06
2023-04-20T01:56:38.378Z,99990.56
2023-04-20T01:59:40.675Z,99996.59
2023-04-20T02:02:43.138Z,100004.13
2023-04-20T02:05:45.587Z,100012.56
2023-04-20T02:08:48.024Z,99996.38
2023-04-20T02:11:50.376Z,100014.56
2023-04-20T02:14:52.640Z,99990.31
2023-04-20T02:17:57.456Z,100006.91
2023-04-20T02:21:01.290Z,100016.66
2023-04-20T02:24:04.065Z,100006.78
2023-04-20T02:27:06.369Z,99971.44
2023-04-20T02:30:09.032Z,100006.31
2023-04-20T02:33:11.601Z,99997.03
2023-04-20T02:36:14.497Z,100005.28
2023-04-20T02:39:17.099Z,100014.09
2023-04-20T02:42:19.653Z,100011.75
2023-04-20T02:45:23.492Z,100002.34
2023-04-20T02:48:26.175Z,100012.81
2023-04-20T02:51:28.911Z,100020.44
2023-04-20T02:54:31.682Z,100015.94
2023-04-20T02:57:34.308Z,100025.63
2023-04-20T03:00:36.918Z,100004.53
2023-04-20T03:03:42.920Z,100027.03
2023-04-20T03:06:47.476Z,100016.78
2023-04-20T03:09:54.659Z,100026.91
2023-04-20T03:13:14.220Z,99993.22
2023-04-20T03:16:29.690Z,100012.53
2023-04-20T03:19:32.839Z,100006.84
2023-04-20T03:22:35.285Z,100016.91
2023-04-20T03:25:38.183Z,100020.41
2023-04-20T03:28:51.036Z,100029.06
2023-04-20T03:31:57.469Z,100021.63
2023-04-20T03:34:59.830Z,100026.75
2023-04-20T03:38:02.262Z,100030.44
2023-04-20T03:41:04.993Z,100033.03
2023-04-20T03:44:07.370Z,100034.13
2023-04-20T03:47:10.284Z,100028.78
2023-04-20T03:50:13.307Z,100033.03
2023-04-20T03:53:15.789Z,100039.44
2023-04-20T03:56:18.299Z,100050.81
2023-04-20T03:59:21.137Z,100047.56
2023-04-20T04:02:24.905Z,100041.50
2023-04-20T04:05:28.703Z,100049.06
2023-04-20T04:08:32.368Z,100046.38
2023-04-20T04:11:34.887Z,100054.13
2023-04-20T04:14:37.682Z,100047.13
2023-04-20T04:17:40.559Z,100041.00
2023-04-20T04:20:42.874Z,100045.88
2023-04-20T04:23:47.641Z,100043.69
2023-04-20T04:27:02.230Z,100054.53
2023-04-20T04:30:06.060Z,100044.78
2023-04-20T04:33:10.215Z,100043.88
2023-04-20T04:36:15.423Z,100052.69
2023-04-20T04:39:18.264Z,100040.06
2023-04-20T04:42:30.206Z,100039.84
2023-04-20T04:45:38.351Z,100057.94
2023-04-20T04:48:42.471Z,100057.63
2023-04-20T04:51:45.705Z,100059.72
2023-04-20T04:54:47.992Z,100054.72
2023-04-20T04:57:50.287Z,100048.66
2023-04-20T05:00:52.691Z,100044.72
2023-04-20T05:03:55.225Z,100048.38
2023-04-20T05:06:57.700Z,100054.28
2023-04-20T05:10:00.142Z,100052.41
2023-04-20T05:13:02.552Z,100068.72
2023-04-20T05:16:05.433Z,100059.75
2023-04-20T05:19:07.828Z,100059.81
2023-04-20T05:22:10.142Z,100076.34
2023-04-20T05:25:14.008Z,100074.03
2023-04-20T05:28:16.988Z,100068.22
2023-04-20T05:31:20.235Z,100064.44
2023-04-20T05:34:22.683Z,100077.56
2023-04-20T05:37:25.042Z,100074.63
2023-04-20T05:40:27.417Z,100074.41
2023-04-20T05:43:29.751Z,100074.69
2023-04-20T05:46:32.100Z,100085.31
2023-04-20T05:49:35.249Z,100079.09
2023-04-20T05:52:37.589Z,100081.03
2023-04-20T05:55:39.920Z,100090.69
2023-04-20T05:58:42.242Z,100090.69
2023-04-20T06:01:44.556Z,100092.06
2023-04-20T06:04:47.015Z,100091.19
2023-04-20T06:07:49.518Z,100084.00
2023-04-20T06:11:00.135Z,100082.47
2023-04-20T06:14:03.831Z,100095.59
2023-04-20T06:17:06.220Z,100083.97
2023-04-20T06:20:10.587Z,100088.00
2023-04-20T06:23:12.902Z,100081.31
2023-04-20T06:26:15.176Z,100084.97
2023-04-20T06:29:17.681Z,100080.94
2023-04-20T06:32:20.178Z,100069.66
2023-04-20T06:35:23.562Z,100084.78
2023-04-20T06:38:26.131Z,100088.50
2023-04-20T06:41:28.624Z,100082.25
2023-04-20T06:44:31.005Z,100085.56
2023-04-20T06:47:34.146Z,100088.81
2023-04-20T06:50:36.772Z,100093.41
2023-04-20T06:53:39.078Z,100093.72
2023-04-20T06:56:41.330Z,100088.63
2023-04-20T06:59:43.624Z,100090.00
2023-04-20T07:02:47.543Z,100089.72
2023-04-20T07:05:49.954Z,100074.28
2023-04-20T07:08:52.259Z,100077.41
2023-04-20T07:11:56.450Z,100095.16
2023-04-20T07:14:58.797Z,100089.09
2023-04-20T07:18:01.160Z,100086.13
2023-04-20T07:21:03.838Z,100081.16
2023-04-20T07:24:06.516Z,100079.53
2023-04-20T07:27:08.953Z,100072.31
2023-04-20T07:30:12.155Z,100092.47
2023-04-20T07:33:14.532Z,100086.38
2023-04-20T07:36:16.908Z,100081.09
2023-04-20T07:39:19.466Z,100090.06
2023-04-20T07:42:22.042Z,100077.81
2023-04-20T07:45:24.437Z,100094.66
2023-04-20T07:48:26.742Z,100081.22
2023-04-20T07:51:30.414Z,100088.91
2023-04-20T07:54:32.899Z,100099.94
2023-04-20T07:57:35.319Z,100088.97
2023-04-20T08:00:37.587Z,100094.50
2023-04-20T08:03:40.176Z,100084.66
2023-04-20T08:06:42.961Z,100075.59
2023-04-20T08:09:45.401Z,100091.16
2023-04-20T08:12:49.250Z,100090.50
2023-04-20T08:15:53.408Z,100093.47
2023-04-20T08:18:55.714Z,100075.38
2023-04-20T08:21:58.065Z,100091.16
2023-04-20T08:25:01.970Z,100089.41
2023-04-20T08:28:06.223Z,100083.41
2023-04-20T08:31:12.234Z,100079.84
2023-04-20T08:34:14.635Z,100081.38
2023-04-20T08:37:17.374Z,100085.59
2023-04-20T08:40:20.174Z,100080.50
2023-04-20T08:43:22.710Z,100078.69
2023-04-20T08:46:25.776Z,100057.09
2023-04-20T08:49:29.947Z,100070.00
2023-04-20T08:52:33.229Z,100073.69
2023-04-20T08:55:45.924Z,100066.31
2023-04-20T08:58:48.302Z,100063.69
2023-04-20T09:01:50.785Z,100053.56
2023-04-20T09:05:06.066Z,100072.44
2023-04-20T09:08:09.112Z,100062.59
2023-04-20T09:11:32.594Z,100057.22
2023-04-20T09:14:45.228Z,100073.66
2023-04-20T09:17:47.754Z,100067.91
2023-04-20T09:20:51.734Z,100073.03
2023-04-20T09:23:57.177Z,100062.84
2023-04-20T09:27:02.095Z,100061.28
2023-04-20T09:30:05.398Z,100063.91
2023-04-20T09:33:08.727Z,100067.50
2023-04-20T09:36:11.892Z,100044.66
2023-04-20T09:39:16.747Z,100043.56
2023-04-20T09:42:19.256Z,100043.00
2023-04-20T09:45:21.718Z,100049.00
2023-04-20T09:48:24.595Z,100049.41
2023-04-20T09:51:28.105Z,100046.66
2023-04-20T09:54:30.648Z,100044.63
2023-04-20T09:57:33.025Z,100051.78
2023-04-20T10:00:35.598Z,100050.84
2023-04-20T10:03:38.071Z,100051.06
2023-04-20T10:06:40.889Z,100032.13
2023-04-20T10:09:43.169Z,100044.16
2023-04-20T10:12:52.130Z,100036.84
2023-04-20T10:15:54.526Z,100038.72
2023-04-20T10:19:07.787Z,100037.28
2023-04-20T10:22:13.530Z,100041.63
2023-04-20T10:25:19.553Z,100032.66
2023-04-20T10:28:21.983Z,100031.19
2023-04-20T10:31:35.832Z,100041.44
2023-04-20T10:34:38.337Z,100020.28
2023-04-20T10:37:51.333Z,100017.34
2023-04-20T10:40:53.740Z,100018.50
2023-04-20T10:43:56.938Z,100030.88
2023-04-20T10:46:59.248Z,100001.44
2023-04-20T10:50:12.308Z,100020.78
2023-04-20T10:53:21.413Z,100014.75
2023-04-20T10:56:25.913Z,100013.97
2023-04-20T10:59:28.900Z,100016.81
2023-04-20T11:02:31.552Z,99982.50
2023-04-20T11:05:34.208Z,100004.19
2023-04-20T11:08:43.702Z,100017.31
2023-04-20T11:11:46.330Z,100012.38
2023-04-20T11:14:54.202Z,99988.53
2023-04-20T11:18:07.228Z,100000.25
2023-04-20T11:21:10.154Z,100001.97
2023-04-20T11:24:24.667Z,100005.44
2023-04-20T11:27:28.245Z,99994.06
2023-04-20T11:30:41.974Z,99984.75
2023-04-20T11:33:44.469Z,99976.50
2023-04-20T11:36:46.940Z,99988.97
2023-04-20T11:40:02.429Z,99999.63
2023-04-20T11:43:05.104Z,99992.97
2023-04-20T11:46:15.290Z,99997.56
2023-04-20T11:49:21.465Z,99981.53
2023-04-20T11:52:23.811Z,99969.16
2023-04-20T11:55:26.171Z,99991.09
2023-04-20T11:58:28.514Z,99981.13
2023-04-20T12:01:33.250Z,99980.94
2023-04-20T12:04:35.992Z,99979.59
2023-04-20T12:07:38.597Z,99963.31
2023-04-20T12:10:41.686Z,99976.38
2023-04-20T12:13:44.016Z,99977.94
2023-04-20T12:16:46.405Z,99974.03
2023-04-20T12:19:48.746Z,99982.31
2023-04-20T12:22:51.170Z,99967.69
2023-04-20T12:25:53.530Z,99979.50
2023-04-20T12:28:57.609Z,99986.34
2023-04-20T12:32:00.403Z,99978.28
2023-04-20T12:35:02.864Z,99968.63
2023-04-20T12:38:05.416Z,99970.31
2023-04-20T12:41:08.099Z,99965.03
2023-04-20T12:44:11.568Z,99966.28
2023-04-20T12:47:14.015Z,99968.34
2023-04-20T12:50:19.227Z,99953.38
2023-04-20T12:53:21.603Z,99953.38
2023-04-20T12:56:23.915Z,99938.19
2023-04-20T12:59:26.237Z,99957.22
2023-04-20T13:02:28.894Z,99958.63
2023-04-20T13:05:31.489Z,99934.03
2023-04-20T13:08:33.917Z,99951.63
2023-04-20T13:11:36.300Z,99933.06
2023-04-20T13:14:38.637Z,99933.69
2023-04-20T13:17:41.457Z,99941.44
2023-04-20T13:20:43.923Z,99931.03
2023-04-20T13:23:46.267Z,99935.94
2023-04-20T13:26:48.703Z,99930.63
2023-04-20T13:29:51.050Z,99946.59
2023-04-20T13:32:53.428Z,99938.44
2023-04-20T13:35:55.795Z,99930.28
2023-04-20T13:38:58.148Z,99933.97
2023-04-20T13:42:00.508Z,99919.13
2023-04-20T13:45:03.761Z,99927.59
2023-04-20T13:48:06.211Z,99931.41
2023-04-20T13:51:08.633Z,99925.84
2023-04-20T13:54:13.856Z,99922.03
2023-04-20T13:57:16.486Z,99933.84
2023-04-20T14:00:19.278Z,99922.44
2023-04-20T14:03:21.952Z,99924.63
2023-04-20T14:06:25.041Z,99919.22
2023-04-20T14:09:28.623Z,99915.50
2023-04-20T14:12:30.949Z,99918.41
2023-04-20T14:15:33.942Z,99898.66
2023-04-20T14:18:36.336Z,99908.75
2023-04-20T14:21:42.365Z,99899.94
2023-04-20T14:24:48.712Z,99905.88
2023-04-20T14:27:51.119Z,99888.34
2023-04-20T14:30:53.400Z,99902.38
2023-04-20T14:33:55.820Z,99899.72
2023-04-20T14:36:58.079Z,99885.09
2023-04-20T14:40:00.454Z,99881.47
2023-04-20T14:43:02.763Z,99870.44
2023-04-20T14:46:08.260Z,99882.00
2023-04-20T14:49:10.859Z,99860.22
2023-04-20T14:52:13.183Z,99883.91
2023-04-20T14:55:15.508Z,99868.78
2023-04-20T14:58:19.307Z,99873.28
2023-04-20T15:01:22.048Z,99873.38
2023-04-20T15:04:24.878Z,99871.34
2023-04-20T15:07:28.516Z,99873.03
2023-04-20T15:10:31.072Z,99869.22
2023-04-20T15:13:33.458Z,99864.00
2023-04-20T15:16:36.037Z,99876.94
2023-04-20T15:19:38.475Z,99881.59
2023-04-20T15:22:40.878Z,99883.88
2023-04-20T15:25:43.328Z,99884.78
2023-04-20T15:28:45.854Z,99881.66
2023-04-20T15:31:48.244Z,99874.13
2023-04-20T15:34:50.710Z,99888.38
2023-04-20T15:37:53.055Z,99870.06
2023-04-20T15:40:56.882Z,99886.97
2023-04-20T15:43:59.442Z,99901.16
2023-04-20T15:47:02.424Z,99909.84
2023-04-20T15:50:04.980Z,99914.78
2023-04-20T15:53:07.455Z,99926.59
2023-04-20T15:56:09.817Z,99928.56
2023-04-20T15:59:12.109Z,99924.59
2023-04-20T16:02:14.446Z,99917.50
2023-04-20T16:05:17.044Z,99905.81
2023-04-20T16:08:21.164Z,99923.84
2023-04-20T16:11:23.814Z,99921.16
2023-04-20T16:14:26.167Z,99920.88
2023-04-20T16:17:28.599Z,99915.22
2023-04-20T16:20:31.082Z,99924.84
2023-04-20T16:23:33.358Z,99918.63
2023-04-20T16:26:36.296Z,99922.88
2023-04-20T16:29:38.823Z,99913.22
2023-04-20T16:32:41.763Z,99922.34
2023-04-20T16:35:44.326Z,99920.19
2023-04-20T16:38:46.646Z,99924.81
2023-04-20T16:41:48.963Z,99920.78
2023-04-20T16:44:51.290Z,99924.00
2023-04-20T16:47:54.620Z,99926.16
2023-04-20T16:50:56.909Z,99932.69
2023-04-20T16:54:01.409Z,99934.81
2023-04-20T16:57:03.800Z,99939.72
2023-04-20T17:00:08.066Z,99943.50
2023-04-20T17:03:13.560Z,99934.06
2023-04-20T17:06:16.249Z,99916.88
2023-04-20T17:09:18.694Z,99921.41
2023-04-20T17:12:21.060Z,99925.75
2023-04-20T17:15:23.578Z,99923.84
2023-04-20T17:18:26.019Z,99931.38
2023-04-20T17:21:29.160Z,99940.53
2023-04-20T17:24:31.498Z,99928.69
2023-04-20T17:27:33.816Z,99943.50
2023-04-20T17:30:36.200Z,99960.75
2023-04-20T17:33:38.709Z,99953.47
2023-04-20T17:36:41.078Z,99954.56
2023-04-20T17:39:43.830Z,99953.22
2023-04-20T17:42:46.365Z,99955.88
2023-04-20T17:45:50.059Z,99954.28
2023-04-20T17:48:52.412Z,99966.16
2023-04-20T17:51:54.920Z,99975.28
2023-04-20T17:55:00.026Z,99968.56
2023-04-20T17:58:02.380Z,99974.75
2023-04-20T18:01:04.977Z,99985.50
2023-04-20T18:04:07.526Z,99976.66
2023-04-20T18:07:13.140Z,99986.06
2023-04-20T18:10:15.901Z,99993.06
2023-04-20T18:13:19.079Z,100005.47
2023-04-20T18:16:21.544Z,99996.56
2023-04-20T18:19:23.982Z,100001.41
2023-04-20T18:22:26.422Z,100009.47
2023-04-20T18:25:28.811Z,100014.56
2023-04-20T18:28:31.132Z,100009.97
2023-04-20T18:31:33.784Z,100010.50
2023-04-20T18:34:36.929Z,100034.22
2023-04-20T18:37:39.542Z,100020.72
2023-04-20T18:40:41.942Z,100029.91
2023-04-20T18:43:51.905Z,100023.97
2023-04-20T18:46:54.308Z,100030.44
2023-04-20T18:49:56.831Z,100014.50
2023-04-20T18:52:59.274Z,100039.28
2023-04-20T18:56:04.404Z,100029.50
2023-04-20T18:59:08.595Z,100023.56
2023-04-20T19:02:13.575Z,100020.56
2023-04-20T19:05:16.183Z,100007.41
2023-04-20T19:08:18.587Z,100044.28
2023-04-20T19:11:21.208Z,100038.84
2023-04-20T19:14:23.597Z,100014.84
2023-04-20T19:17:26.259Z,100034.16
2023-04-20T19:20:32.614Z,100054.16
2023-04-20T19:23:36.361Z,100046.34
2023-04-20T19:26:38.751Z,100056.31
2023-04-20T19:29:41.080Z,100056.31
2023-04-20T19:32:43.490Z,100050.97
2023-04-20T19:35:51.144Z,100048.03
2023-04-20T19:38:53.769Z,100036.97
2023-04-20T19:41:56.202Z,100040.72
2023-04-20T19:44:59.031Z,100042.81
2023-04-20T19:48:01.596Z,100052.56
2023-04-20T19:51:05.700Z,100041.81
2023-04-20T19:54:08.137Z,100051.47
2023-04-20T19:57:10.656Z,100049.00
2023-04-20T20:00:13.476Z,100068.97
2023-04-20T20:03:16.275Z,100067.06
2023-04-20T20:06:18.895Z,100070.28
2023-04-20T20:09:24.041Z,100073.19
2023-04-20T20:12:26.824Z,100071.88
2023-04-20T20:15:29.253Z,100064.31
2023-04-20T20:18:32.007Z,100082.81
2023-04-20T20:21:34.499Z,100076.91
2023-04-20T20:24:37.542Z,100078.19
2023-04-20T20:27:39.822Z,100076.00
2023-04-20T20:30:45.196Z,100078.84
2023-04-20T20:33:47.805Z,100068.91
2023-04-20T20:36:51.382Z,100074.81
2023-04-20T20:39:53.638Z,100070.94
2023-04-20T20:42:56.871Z,100081.38
2023-04-20T20:45:59.328Z,100094.00
2023-04-20T20:49:02.555Z,100075.03
2023-04-20T20:52:08.137Z,100086.25
2023-04-20T20:55:11.109Z,100102.91
2023-04-20T20:58:14.308Z,100073.50
2023-04-20T21:01:18.219Z,100092.81
2023-04-20T21:04:20.814Z,100093.31
2023-04-20T21:07:23.153Z,100076.78
2023-04-20T21:10:25.635Z,100104.75
2023-04-20T21:13:28.124Z,100088.88
2023-04-20T21:16:30.490Z,100082.47
2023-04-20T21:19:32.955Z,100100.00
2023-04-20T21:22:35.580Z,100095.06
2023-04-20T21:25:38.139Z,100102.00
2023-04-20T21:28:40.638Z,100104.69
2023-04-20T21:31:43.051Z,100086.53
2023-04-20T21:34:45.523Z,100094.28
2023-04-20T21:37:48.062Z,100102.06
2023-04-20T21:40:50.586Z,100097.75
2023-04-20T21:43:53.702Z,100098.00
2023-04-20T21:46:56.104Z,100079.31
2023-04-20T21:49:58.445Z,100109.59
2023-04-20T21:53:00.950Z,100076.00
2023-04-20T21:56:03.287Z,100083.78
2023-04-20T21:59:05.713Z,100101.94
2023-04-20T22:02:08.144Z,100105.38
2023-04-20T22:05:11.511Z,100097.78
2023-04-20T22:08:15.237Z,100101.22
2023-04-20T22:11:17.750Z,100105.03
2023-04-20T22:14:19.990Z,100110.81
2023-04-20T22:17:23.794Z,100109.53
2023-04-20T22:20:26.975Z,100090.88
2023-04-20T22:23:29.308Z,100115.13
2023-04-20T22:26:31.726Z,100089.19
2023-04-20T22:29:34.138Z,100112.63
2023-04-20T22:32:37.642Z,100115.53
2023-04-20T22:35:40.056Z,100086.91
2023-04-20T22:38:42.427Z,100098.53
2023-04-20T22:41:44.930Z,100106.72
2023-04-20T22:44:47.304Z,100088.38
2023-04-20T22:47:49.752Z,100089.94
2023-04-20T22:50:52.560Z,100091.97
2023-04-20T22:53:55.961Z,100096.84
2023-04-20T22:56:58.957Z,100085.47
2023-04-20T23:00:13.971Z,100097.88
2023-04-20T23:03:16.633Z,100085.19
2023-04-20T23:06:19.123Z,100071.47
2023-04-20T23:09:21.853Z,100091.16
2023-04-20T23:12:26.200Z,100074.72
2023-04-20T23:15:28.481Z,100072.06
2023-04-20T23:18:31.172Z,100095.16
2023-04-20T23:21:33.563Z,100075.94
2023-04-20T23:24:36.136Z,100096.69
2023-04-20T23:27:38.664Z,100076.94
2023-04-20T23:30:41.064Z,100088.25
2023-04-20T23:33:43.412Z,100086.56
2023-04-20T23:36:45.839Z,100081.63
2023-04-20T23:39:48.178Z,100107.22
2023-04-20T23:42:50.575Z,100077.06
2023-04-20T23:45:52.928Z,100072.47
2023-04-20T23:48:55.625Z,100095.91
2023-04-20T23:51:58.246Z,100087.91
2023-04-20T23:55:00.692Z,100087.84
2023-04-20T23:58:05.766Z,100077.56
